sensor_id;sensor_type;location;lat;lon;timestamp;temperature;humidity
16417;DHT22;8317;52.186;5.688;2022-08-16T00:02:03;21.70;99.90
16417;DHT22;8317;52.186;5.688;2022-08-16T00:04:31;21.70;99.90
16417;DHT22;8317;52.186;5.688;2022-08-16T00:06:59;21.70;99.90
16417;DHT22;8317;52.186;5.688;2022-08-16T00:09:27;21.60;99.90
16417;DHT22;8317;52.186;5.688;2022-08-16T00:11:54;21.60;99.90
16417;DHT22;8317;52.186;5.688;2022-08-16T00:14:24;21.70;99.90
16417;DHT22;8317;52.186;5.688;2022-08-16T00:16:51;21.60;99.90
16417;DHT22;8317;52.186;5.688;2022-08-16T00:19:22;21.60;99.90
16417;DHT22;8317;52.186;5.688;2022-08-16T00:21:49;21.50;99.90
16417;DHT22;8317;52.186;5.688;2022-08-16T00:24:18;21.40;99.90
16417;DHT22;8317;52.186;5.688;2022-08-16T00:26:45;21.40;99.90
16417;DHT22;8317;52.186;5.688;2022-08-16T00:29:14;21.40;99.90
16417;DHT22;8317;52.186;5.688;2022-08-16T00:31:43;21.40;99.90
16417;DHT22;8317;52.186;5.688;2022-08-16T00:34:10;21.40;99.90
16417;DHT22;8317;52.186;5.688;2022-08-16T00:36:37;21.30;99.90
16417;DHT22;8317;52.186;5.688;2022-08-16T00:39:04;21.30;99.90
16417;DHT22;8317;52.186;5.688;2022-08-16T00:41:33;21.30;99.90
16417;DHT22;8317;52.186;5.688;2022-08-16T00:44:03;21.20;99.90
16417;DHT22;8317;52.186;5.688;2022-08-16T00:46:36;21.10;99.90
16417;DHT22;8317;52.186;5.688;2022-08-16T00:49:07;21.00;99.90
16417;DHT22;8317;52.186;5.688;2022-08-16T00:51:35;21.00;99.90
16417;DHT22;8317;52.186;5.688;2022-08-16T00:54:02;20.90;99.90
16417;DHT22;8317;52.186;5.688;2022-08-16T00:56:33;21.00;99.90
16417;DHT22;8317;52.186;5.688;2022-08-16T00:59:00;21.00;99.90
16417;DHT22;8317;52.186;5.688;2022-08-16T01:01:28;20.90;99.90
16417;DHT22;8317;52.186;5.688;2022-08-16T01:03:57;20.80;99.90
16417;DHT22;8317;52.186;5.688;2022-08-16T01:06:26;20.80;99.90
16417;DHT22;8317;52.186;5.688;2022-08-16T01:08:54;21.00;99.90
16417;DHT22;8317;52.186;5.688;2022-08-16T01:11:23;20.90;99.90
16417;DHT22;8317;52.186;5.688;2022-08-16T01:13:55;20.70;99.90
16417;DHT22;8317;52.186;5.688;2022-08-16T01:16:26;20.70;99.90
16417;DHT22;8317;52.186;5.688;2022-08-16T01:18:56;20.60;99.90
16417;DHT22;8317;52.186;5.688;2022-08-16T01:21:32;20.40;99.90
16417;DHT22;8317;52.186;5.688;2022-08-16T01:24:27;20.40;99.90
16417;DHT22;8317;52.186;5.688;2022-08-16T01:26:58;20.40;99.90
16417;DHT22;8317;52.186;5.688;2022-08-16T01:29:31;20.30;99.90
16417;DHT22;8317;52.186;5.688;2022-08-16T01:31:58;20.30;99.90
16417;DHT22;8317;52.186;5.688;2022-08-16T01:34:25;20.30;99.90
16417;DHT22;8317;52.186;5.688;2022-08-16T01:37:01;20.20;99.90
16417;DHT22;8317;52.186;5.688;2022-08-16T01:39:29;20.10;99.90
16417;DHT22;8317;52.186;5.688;2022-08-16T01:41:56;20.00;99.90
16417;DHT22;8317;52.186;5.688;2022-08-16T01:44:23;19.90;99.90
16417;DHT22;8317;52.186;5.688;2022-08-16T01:46:51;19.90;99.90
16417;DHT22;8317;52.186;5.688;2022-08-16T01:49:23;19.80;99.90
16417;DHT22;8317;52.186;5.688;2022-08-16T01:51:55;19.80;99.90
16417;DHT22;8317;52.186;5.688;2022-08-16T01:54:23;19.80;99.90
16417;DHT22;8317;52.186;5.688;2022-08-16T01:56:51;19.80;99.90
16417;DHT22;8317;52.186;5.688;2022-08-16T01:59:18;19.80;99.90
16417;DHT22;8317;52.186;5.688;2022-08-16T02:01:47;19.70;99.90
16417;DHT22;8317;52.186;5.688;2022-08-16T02:04:15;19.70;99.90
16417;DHT22;8317;52.186;5.688;2022-08-16T02:06:42;19.60;99.90
16417;DHT22;8317;52.186;5.688;2022-08-16T02:09:09;19.60;99.90
16417;DHT22;8317;52.186;5.688;2022-08-16T02:11:37;19.60;99.90
16417;DHT22;8317;52.186;5.688;2022-08-16T02:14:06;19.50;99.90
16417;DHT22;8317;52.186;5.688;2022-08-16T02:16:33;19.60;99.90
16417;DHT22;8317;52.186;5.688;2022-08-16T02:19:00;19.40;99.90
16417;DHT22;8317;52.186;5.688;2022-08-16T02:21:27;19.50;99.90
16417;DHT22;8317;52.186;5.688;2022-08-16T02:23:54;19.60;99.90
16417;DHT22;8317;52.186;5.688;2022-08-16T02:26:21;19.50;99.90
16417;DHT22;8317;52.186;5.688;2022-08-16T02:28:49;19.60;99.90
16417;DHT22;8317;52.186;5.688;2022-08-16T02:31:18;19.60;99.90
16417;DHT22;8317;52.186;5.688;2022-08-16T02:33:45;19.60;99.90
16417;DHT22;8317;52.186;5.688;2022-08-16T02:36:13;19.60;99.90
16417;DHT22;8317;52.186;5.688;2022-08-16T02:38:40;19.50;99.90
16417;DHT22;8317;52.186;5.688;2022-08-16T02:41:08;19.40;99.90
16417;DHT22;8317;52.186;5.688;2022-08-16T02:43:35;19.30;99.90
16417;DHT22;8317;52.186;5.688;2022-08-16T02:46:03;19.30;99.90
16417;DHT22;8317;52.186;5.688;2022-08-16T02:48:32;19.30;99.90
16417;DHT22;8317;52.186;5.688;2022-08-16T02:51:00;19.10;99.90
16417;DHT22;8317;52.186;5.688;2022-08-16T02:53:28;18.90;99.90
16417;DHT22;8317;52.186;5.688;2022-08-16T02:55:55;19.00;99.90
16417;DHT22;8317;52.186;5.688;2022-08-16T02:58:23;18.80;99.90
16417;DHT22;8317;52.186;5.688;2022-08-16T03:00:51;18.80;99.90
16417;DHT22;8317;52.186;5.688;2022-08-16T03:03:18;18.90;99.90
16417;DHT22;8317;52.186;5.688;2022-08-16T03:05:46;18.80;99.90
16417;DHT22;8317;52.186;5.688;2022-08-16T03:08:13;18.80;99.90
16417;DHT22;8317;52.186;5.688;2022-08-16T03:10:41;18.80;99.90
16417;DHT22;8317;52.186;5.688;2022-08-16T03:13:08;18.90;99.90
16417;DHT22;8317;52.186;5.688;2022-08-16T03:15:35;18.80;99.90
16417;DHT22;8317;52.186;5.688;2022-08-16T03:18:02;18.90;99.90
16417;DHT22;8317;52.186;5.688;2022-08-16T03:20:29;18.70;99.90
16417;DHT22;8317;52.186;5.688;2022-08-16T03:22:57;18.60;99.90
16417;DHT22;8317;52.186;5.688;2022-08-16T03:25:24;18.70;99.90
16417;DHT22;8317;52.186;5.688;2022-08-16T03:27:51;18.70;99.90
16417;DHT22;8317;52.186;5.688;2022-08-16T03:30:20;18.50;99.90
16417;DHT22;8317;52.186;5.688;2022-08-16T03:32:48;18.60;99.90
16417;DHT22;8317;52.186;5.688;2022-08-16T03:35:16;18.70;99.90
16417;DHT22;8317;52.186;5.688;2022-08-16T03:37:44;18.50;99.90
16417;DHT22;8317;52.186;5.688;2022-08-16T03:40:14;18.50;99.90
16417;DHT22;8317;52.186;5.688;2022-08-16T03:42:41;18.40;99.90
16417;DHT22;8317;52.186;5.688;2022-08-16T03:45:08;18.60;99.90
16417;DHT22;8317;52.186;5.688;2022-08-16T03:47:35;18.50;99.90
16417;DHT22;8317;52.186;5.688;2022-08-16T03:50:04;18.40;99.90
16417;DHT22;8317;52.186;5.688;2022-08-16T03:52:31;18.30;99.90
16417;DHT22;8317;52.186;5.688;2022-08-16T03:54:58;18.20;99.90
16417;DHT22;8317;52.186;5.688;2022-08-16T03:57:27;18.40;99.90
16417;DHT22;8317;52.186;5.688;2022-08-16T03:59:55;18.30;99.90
16417;DHT22;8317;52.186;5.688;2022-08-16T04:02:22;18.30;99.90
16417;DHT22;8317;52.186;5.688;2022-08-16T04:04:49;18.30;99.90
16417;DHT22;8317;52.186;5.688;2022-08-16T04:07:16;18.10;99.90
16417;DHT22;8317;52.186;5.688;2022-08-16T04:09:43;18.20;99.90
16417;DHT22;8317;52.186;5.688;2022-08-16T04:12:10;18.20;99.90
16417;DHT22;8317;52.186;5.688;2022-08-16T04:14:39;18.20;99.90
16417;DHT22;8317;52.186;5.688;2022-08-16T04:17:06;18.00;99.90
16417;DHT22;8317;52.186;5.688;2022-08-16T04:19:32;18.20;99.90
16417;DHT22;8317;52.186;5.688;2022-08-16T04:22:00;18.00;99.90
16417;DHT22;8317;52.186;5.688;2022-08-16T04:24:27;18.20;99.90
16417;DHT22;8317;52.186;5.688;2022-08-16T04:26:54;18.10;99.90
16417;DHT22;8317;52.186;5.688;2022-08-16T04:29:21;18.20;99.90
16417;DHT22;8317;52.186;5.688;2022-08-16T04:31:50;18.10;99.90
16417;DHT22;8317;52.186;5.688;2022-08-16T04:34:17;18.10;99.90
16417;DHT22;8317;52.186;5.688;2022-08-16T04:36:43;18.10;99.90
16417;DHT22;8317;52.186;5.688;2022-08-16T04:39:10;18.10;99.90
16417;DHT22;8317;52.186;5.688;2022-08-16T04:41:38;18.00;99.90
16417;DHT22;8317;52.186;5.688;2022-08-16T04:44:05;17.80;99.90
16417;DHT22;8317;52.186;5.688;2022-08-16T04:46:32;17.80;99.90
16417;DHT22;8317;52.186;5.688;2022-08-16T04:49:00;17.90;99.90
16417;DHT22;8317;52.186;5.688;2022-08-16T04:51:27;17.90;99.90
16417;DHT22;8317;52.186;5.688;2022-08-16T04:53:55;17.70;99.90
16417;DHT22;8317;52.186;5.688;2022-08-16T04:56:22;17.90;99.90
16417;DHT22;8317;52.186;5.688;2022-08-16T04:58:49;17.80;99.90
16417;DHT22;8317;52.186;5.688;2022-08-16T05:01:16;17.80;99.90
16417;DHT22;8317;52.186;5.688;2022-08-16T05:03:43;17.90;99.90
16417;DHT22;8317;52.186;5.688;2022-08-16T05:06:11;17.70;99.90
16417;DHT22;8317;52.186;5.688;2022-08-16T05:08:38;17.80;99.90
16417;DHT22;8317;52.186;5.688;2022-08-16T05:11:08;17.70;99.90
16417;DHT22;8317;52.186;5.688;2022-08-16T05:13:37;17.70;99.90
16417;DHT22;8317;52.186;5.688;2022-08-16T05:16:04;17.60;99.90
16417;DHT22;8317;52.186;5.688;2022-08-16T05:18:34;17.50;99.90
16417;DHT22;8317;52.186;5.688;2022-08-16T05:21:01;17.60;99.90
16417;DHT22;8317;52.186;5.688;2022-08-16T05:23:30;17.70;99.90
16417;DHT22;8317;52.186;5.688;2022-08-16T05:25:57;17.80;99.90
16417;DHT22;8317;52.186;5.688;2022-08-16T05:28:24;17.90;99.90
16417;DHT22;8317;52.186;5.688;2022-08-16T05:30:51;18.10;99.90
16417;DHT22;8317;52.186;5.688;2022-08-16T05:33:18;18.10;99.90
16417;DHT22;8317;52.186;5.688;2022-08-16T05:35:46;18.00;99.90
16417;DHT22;8317;52.186;5.688;2022-08-16T05:38:13;18.10;99.90
16417;DHT22;8317;52.186;5.688;2022-08-16T05:40:41;18.20;99.90
16417;DHT22;8317;52.186;5.688;2022-08-16T05:43:08;18.10;99.90
16417;DHT22;8317;52.186;5.688;2022-08-16T05:45:35;18.20;99.90
16417;DHT22;8317;52.186;5.688;2022-08-16T05:48:02;18.20;99.90
16417;DHT22;8317;52.186;5.688;2022-08-16T05:50:29;18.30;99.90
16417;DHT22;8317;52.186;5.688;2022-08-16T05:52:56;18.50;99.90
16417;DHT22;8317;52.186;5.688;2022-08-16T05:55:23;18.40;99.90
16417;DHT22;8317;52.186;5.688;2022-08-16T05:57:51;18.70;99.90
16417;DHT22;8317;52.186;5.688;2022-08-16T06:00:18;18.70;99.90
16417;DHT22;8317;52.186;5.688;2022-08-16T06:02:45;18.80;99.90
16417;DHT22;8317;52.186;5.688;2022-08-16T06:05:12;18.80;99.90
16417;DHT22;8317;52.186;5.688;2022-08-16T06:07:39;18.90;99.90
16417;DHT22;8317;52.186;5.688;2022-08-16T06:10:06;19.10;99.90
16417;DHT22;8317;52.186;5.688;2022-08-16T06:12:33;19.40;99.90
16417;DHT22;8317;52.186;5.688;2022-08-16T06:15:05;19.30;99.90
16417;DHT22;8317;52.186;5.688;2022-08-16T06:17:32;19.50;99.90
16417;DHT22;8317;52.186;5.688;2022-08-16T06:19:59;19.80;99.90
16417;DHT22;8317;52.186;5.688;2022-08-16T06:22:26;19.90;99.90
16417;DHT22;8317;52.186;5.688;2022-08-16T06:24:53;20.00;99.90
16417;DHT22;8317;52.186;5.688;2022-08-16T06:27:20;20.20;99.90
16417;DHT22;8317;52.186;5.688;2022-08-16T06:29:47;20.40;99.90
16417;DHT22;8317;52.186;5.688;2022-08-16T06:32:15;20.70;99.90
16417;DHT22;8317;52.186;5.688;2022-08-16T06:34:42;21.00;99.90
16417;DHT22;8317;52.186;5.688;2022-08-16T06:37:09;21.20;99.90
16417;DHT22;8317;52.186;5.688;2022-08-16T06:39:36;21.40;99.90
16417;DHT22;8317;52.186;5.688;2022-08-16T06:42:03;21.60;99.90
16417;DHT22;8317;52.186;5.688;2022-08-16T06:44:30;21.90;99.90
16417;DHT22;8317;52.186;5.688;2022-08-16T06:46:57;22.20;99.90
16417;DHT22;8317;52.186;5.688;2022-08-16T06:49:25;22.40;99.90
16417;DHT22;8317;52.186;5.688;2022-08-16T06:51:52;22.60;99.90
16417;DHT22;8317;52.186;5.688;2022-08-16T06:54:19;22.80;99.90
16417;DHT22;8317;52.186;5.688;2022-08-16T06:56:46;23.00;99.90
16417;DHT22;8317;52.186;5.688;2022-08-16T06:59:13;23.20;99.90
16417;DHT22;8317;52.186;5.688;2022-08-16T07:01:40;23.40;99.90
16417;DHT22;8317;52.186;5.688;2022-08-16T07:04:07;23.50;99.90
16417;DHT22;8317;52.186;5.688;2022-08-16T07:06:35;23.70;99.90
16417;DHT22;8317;52.186;5.688;2022-08-16T07:09:02;23.80;99.90
16417;DHT22;8317;52.186;5.688;2022-08-16T07:11:29;24.00;99.90
16417;DHT22;8317;52.186;5.688;2022-08-16T07:13:56;24.00;99.90
16417;DHT22;8317;52.186;5.688;2022-08-16T07:16:24;24.10;99.90
16417;DHT22;8317;52.186;5.688;2022-08-16T07:18:51;24.30;99.90
16417;DHT22;8317;52.186;5.688;2022-08-16T07:21:18;24.40;99.90
16417;DHT22;8317;52.186;5.688;2022-08-16T07:23:46;24.30;99.90
16417;DHT22;8317;52.186;5.688;2022-08-16T07:26:18;24.20;99.90
16417;DHT22;8317;52.186;5.688;2022-08-16T07:28:45;24.30;99.90
16417;DHT22;8317;52.186;5.688;2022-08-16T07:31:12;24.60;99.90
16417;DHT22;8317;52.186;5.688;2022-08-16T07:33:39;24.70;99.90
16417;DHT22;8317;52.186;5.688;2022-08-16T07:36:08;24.80;99.90
16417;DHT22;8317;52.186;5.688;2022-08-16T07:38:35;24.90;99.90
16417;DHT22;8317;52.186;5.688;2022-08-16T07:41:03;25.10;99.90
16417;DHT22;8317;52.186;5.688;2022-08-16T07:43:31;25.20;99.90
16417;DHT22;8317;52.186;5.688;2022-08-16T07:45:58;25.20;99.90
16417;DHT22;8317;52.186;5.688;2022-08-16T07:48:25;25.50;99.90
16417;DHT22;8317;52.186;5.688;2022-08-16T07:50:53;25.40;99.90
16417;DHT22;8317;52.186;5.688;2022-08-16T07:53:20;25.60;99.90
16417;DHT22;8317;52.186;5.688;2022-08-16T07:55:47;25.60;99.90
16417;DHT22;8317;52.186;5.688;2022-08-16T07:58:16;25.80;99.90
16417;DHT22;8317;52.186;5.688;2022-08-16T08:00:43;25.90;99.90
16417;DHT22;8317;52.186;5.688;2022-08-16T08:03:10;26.00;99.90
16417;DHT22;8317;52.186;5.688;2022-08-16T08:05:36;26.00;99.90
16417;DHT22;8317;52.186;5.688;2022-08-16T08:08:05;26.10;99.90
16417;DHT22;8317;52.186;5.688;2022-08-16T08:10:32;26.40;99.90
16417;DHT22;8317;52.186;5.688;2022-08-16T08:12:59;26.60;99.90
16417;DHT22;8317;52.186;5.688;2022-08-16T08:15:27;26.50;99.90
16417;DHT22;8317;52.186;5.688;2022-08-16T08:17:55;26.60;99.90
16417;DHT22;8317;52.186;5.688;2022-08-16T08:20:23;26.50;99.90
16417;DHT22;8317;52.186;5.688;2022-08-16T08:22:52;26.80;99.90
16417;DHT22;8317;52.186;5.688;2022-08-16T08:25:20;26.90;99.90
16417;DHT22;8317;52.186;5.688;2022-08-16T08:27:47;26.90;99.90
16417;DHT22;8317;52.186;5.688;2022-08-16T08:30:15;26.90;99.90
16417;DHT22;8317;52.186;5.688;2022-08-16T08:32:43;27.10;99.90
16417;DHT22;8317;52.186;5.688;2022-08-16T08:35:10;27.30;99.90
16417;DHT22;8317;52.186;5.688;2022-08-16T08:37:37;27.30;99.90
16417;DHT22;8317;52.186;5.688;2022-08-16T08:40:05;27.40;99.90
16417;DHT22;8317;52.186;5.688;2022-08-16T08:42:33;27.50;99.90
16417;DHT22;8317;52.186;5.688;2022-08-16T08:44:59;27.60;99.90
16417;DHT22;8317;52.186;5.688;2022-08-16T08:47:28;27.90;99.90
16417;DHT22;8317;52.186;5.688;2022-08-16T08:49:57;27.90;99.90
16417;DHT22;8317;52.186;5.688;2022-08-16T08:52:24;28.00;99.90
16417;DHT22;8317;52.186;5.688;2022-08-16T08:54:52;28.00;99.90
16417;DHT22;8317;52.186;5.688;2022-08-16T08:57:19;28.10;99.90
16417;DHT22;8317;52.186;5.688;2022-08-16T08:59:46;28.30;99.90
16417;DHT22;8317;52.186;5.688;2022-08-16T09:02:13;28.40;99.90
16417;DHT22;8317;52.186;5.688;2022-08-16T09:04:41;28.30;99.90
16417;DHT22;8317;52.186;5.688;2022-08-16T09:07:09;28.60;99.90
16417;DHT22;8317;52.186;5.688;2022-08-16T09:09:36;28.80;99.90
16417;DHT22;8317;52.186;5.688;2022-08-16T09:12:04;29.00;99.90
16417;DHT22;8317;52.186;5.688;2022-08-16T09:14:32;29.10;99.90
16417;DHT22;8317;52.186;5.688;2022-08-16T09:16:59;29.10;99.90
16417;DHT22;8317;52.186;5.688;2022-08-16T09:19:26;29.00;99.90
16417;DHT22;8317;52.186;5.688;2022-08-16T09:21:53;29.00;99.90
16417;DHT22;8317;52.186;5.688;2022-08-16T09:24:21;28.90;99.90
16417;DHT22;8317;52.186;5.688;2022-08-16T09:26:48;29.10;99.90
16417;DHT22;8317;52.186;5.688;2022-08-16T09:29:15;29.10;99.90
16417;DHT22;8317;52.186;5.688;2022-08-16T09:31:42;29.10;99.90
16417;DHT22;8317;52.186;5.688;2022-08-16T09:34:09;29.50;99.90
16417;DHT22;8317;52.186;5.688;2022-08-16T09:36:36;29.80;99.90
16417;DHT22;8317;52.186;5.688;2022-08-16T09:39:03;29.30;99.90
16417;DHT22;8317;52.186;5.688;2022-08-16T09:41:32;29.30;99.90
16417;DHT22;8317;52.186;5.688;2022-08-16T09:43:59;29.30;99.90
16417;DHT22;8317;52.186;5.688;2022-08-16T09:46:28;29.50;99.90
16417;DHT22;8317;52.186;5.688;2022-08-16T09:48:55;29.80;99.90
16417;DHT22;8317;52.186;5.688;2022-08-16T09:51:23;30.00;99.90
16417;DHT22;8317;52.186;5.688;2022-08-16T09:53:51;29.70;99.90
16417;DHT22;8317;52.186;5.688;2022-08-16T09:56:24;30.10;99.90
16417;DHT22;8317;52.186;5.688;2022-08-16T09:58:53;30.00;99.90
16417;DHT22;8317;52.186;5.688;2022-08-16T10:01:20;29.90;99.90
16417;DHT22;8317;52.186;5.688;2022-08-16T10:03:47;30.10;99.90
16417;DHT22;8317;52.186;5.688;2022-08-16T10:06:14;30.10;99.90
16417;DHT22;8317;52.186;5.688;2022-08-16T10:08:41;30.40;99.90
16417;DHT22;8317;52.186;5.688;2022-08-16T10:11:08;30.50;99.90
16417;DHT22;8317;52.186;5.688;2022-08-16T10:13:54;30.70;99.90
16417;DHT22;8317;52.186;5.688;2022-08-16T10:16:21;30.40;99.90
16417;DHT22;8317;52.186;5.688;2022-08-16T10:18:48;30.40;99.90
16417;DHT22;8317;52.186;5.688;2022-08-16T10:21:14;30.40;99.90
16417;DHT22;8317;52.186;5.688;2022-08-16T10:23:41;30.10;99.90
16417;DHT22;8317;52.186;5.688;2022-08-16T10:26:09;30.00;99.90
16417;DHT22;8317;52.186;5.688;2022-08-16T10:28:36;30.00;99.90
16417;DHT22;8317;52.186;5.688;2022-08-16T10:31:05;30.20;99.90
16417;DHT22;8317;52.186;5.688;2022-08-16T10:33:33;30.30;99.90
16417;DHT22;8317;52.186;5.688;2022-08-16T10:36:01;30.20;99.90
16417;DHT22;8317;52.186;5.688;2022-08-16T10:38:28;30.70;99.90
16417;DHT22;8317;52.186;5.688;2022-08-16T10:40:55;30.50;99.90
16417;DHT22;8317;52.186;5.688;2022-08-16T10:43:22;30.60;99.90
16417;DHT22;8317;52.186;5.688;2022-08-16T10:45:49;30.80;99.90
16417;DHT22;8317;52.186;5.688;2022-08-16T10:48:17;30.70;99.90
16417;DHT22;8317;52.186;5.688;2022-08-16T10:50:44;30.80;99.90
16417;DHT22;8317;52.186;5.688;2022-08-16T10:53:11;31.10;99.90
16417;DHT22;8317;52.186;5.688;2022-08-16T10:55:40;31.30;99.90
16417;DHT22;8317;52.186;5.688;2022-08-16T10:58:10;31.40;99.90
16417;DHT22;8317;52.186;5.688;2022-08-16T11:00:38;31.00;99.90
16417;DHT22;8317;52.186;5.688;2022-08-16T11:03:06;31.30;99.90
16417;DHT22;8317;52.186;5.688;2022-08-16T11:05:38;31.70;99.90
16417;DHT22;8317;52.186;5.688;2022-08-16T11:08:06;31.80;99.90
16417;DHT22;8317;52.186;5.688;2022-08-16T11:10:40;31.80;99.90
16417;DHT22;8317;52.186;5.688;2022-08-16T11:13:08;32.20;99.90
16417;DHT22;8317;52.186;5.688;2022-08-16T11:15:36;32.30;99.90
16417;DHT22;8317;52.186;5.688;2022-08-16T11:18:04;32.00;99.90
16417;DHT22;8317;52.186;5.688;2022-08-16T11:20:31;32.00;99.90
16417;DHT22;8317;52.186;5.688;2022-08-16T11:23:00;32.40;99.90
16417;DHT22;8317;52.186;5.688;2022-08-16T11:25:29;32.20;99.90
16417;DHT22;8317;52.186;5.688;2022-08-16T11:27:57;31.90;99.90
16417;DHT22;8317;52.186;5.688;2022-08-16T11:30:26;31.50;99.90
16417;DHT22;8317;52.186;5.688;2022-08-16T11:32:54;30.90;99.90
16417;DHT22;8317;52.186;5.688;2022-08-16T11:35:23;30.40;99.90
16417;DHT22;8317;52.186;5.688;2022-08-16T11:37:54;30.00;99.90
16417;DHT22;8317;52.186;5.688;2022-08-16T11:40:23;29.90;99.90
16417;DHT22;8317;52.186;5.688;2022-08-16T11:42:50;29.80;99.90
16417;DHT22;8317;52.186;5.688;2022-08-16T11:45:18;29.90;99.90
16417;DHT22;8317;52.186;5.688;2022-08-16T11:47:45;30.20;99.90
16417;DHT22;8317;52.186;5.688;2022-08-16T11:50:12;30.60;99.90
16417;DHT22;8317;52.186;5.688;2022-08-16T11:52:39;30.70;99.90
16417;DHT22;8317;52.186;5.688;2022-08-16T11:55:09;30.50;99.90
16417;DHT22;8317;52.186;5.688;2022-08-16T11:57:38;30.60;99.90
16417;DHT22;8317;52.186;5.688;2022-08-16T12:00:09;30.80;99.90
16417;DHT22;8317;52.186;5.688;2022-08-16T12:02:37;31.20;99.90
16417;DHT22;8317;52.186;5.688;2022-08-16T12:05:05;30.90;99.90
16417;DHT22;8317;52.186;5.688;2022-08-16T12:07:33;30.80;99.90
16417;DHT22;8317;52.186;5.688;2022-08-16T12:10:00;30.70;99.90
16417;DHT22;8317;52.186;5.688;2022-08-16T12:12:27;30.60;99.90
16417;DHT22;8317;52.186;5.688;2022-08-16T12:14:55;30.60;99.90
16417;DHT22;8317;52.186;5.688;2022-08-16T12:17:22;30.70;99.90
16417;DHT22;8317;52.186;5.688;2022-08-16T12:19:49;30.90;99.90
16417;DHT22;8317;52.186;5.688;2022-08-16T12:22:16;31.10;99.90
16417;DHT22;8317;52.186;5.688;2022-08-16T12:24:43;30.80;99.90
16417;DHT22;8317;52.186;5.688;2022-08-16T12:27:10;30.70;99.90
16417;DHT22;8317;52.186;5.688;2022-08-16T12:29:37;30.70;99.90
16417;DHT22;8317;52.186;5.688;2022-08-16T12:32:05;30.60;99.90
16417;DHT22;8317;52.186;5.688;2022-08-16T12:34:32;30.70;99.90
16417;DHT22;8317;52.186;5.688;2022-08-16T12:37:00;30.70;99.90
16417;DHT22;8317;52.186;5.688;2022-08-16T12:39:27;30.80;99.90
16417;DHT22;8317;52.186;5.688;2022-08-16T12:41:54;30.50;99.90
16417;DHT22;8317;52.186;5.688;2022-08-16T12:44:21;30.60;99.90
16417;DHT22;8317;52.186;5.688;2022-08-16T12:46:48;30.80;99.90
16417;DHT22;8317;52.186;5.688;2022-08-16T12:49:37;30.80;99.90
16417;DHT22;8317;52.186;5.688;2022-08-16T12:52:03;31.00;99.90
16417;DHT22;8317;52.186;5.688;2022-08-16T12:54:30;31.00;99.90
16417;DHT22;8317;52.186;5.688;2022-08-16T12:56:58;30.70;99.90
16417;DHT22;8317;52.186;5.688;2022-08-16T12:59:25;30.70;99.90
16417;DHT22;8317;52.186;5.688;2022-08-16T13:01:52;30.40;99.90
16417;DHT22;8317;52.186;5.688;2022-08-16T13:04:19;30.30;99.90
16417;DHT22;8317;52.186;5.688;2022-08-16T13:06:48;30.10;99.90
16417;DHT22;8317;52.186;5.688;2022-08-16T13:09:15;30.10;99.90
16417;DHT22;8317;52.186;5.688;2022-08-16T13:11:57;30.00;99.90
16417;DHT22;8317;52.186;5.688;2022-08-16T13:14:30;29.80;99.90
16417;DHT22;8317;52.186;5.688;2022-08-16T13:16:59;29.70;99.90
16417;DHT22;8317;52.186;5.688;2022-08-16T13:19:26;29.70;99.90
16417;DHT22;8317;52.186;5.688;2022-08-16T13:21:55;29.50;99.90
16417;DHT22;8317;52.186;5.688;2022-08-16T13:24:22;29.60;99.90
16417;DHT22;8317;52.186;5.688;2022-08-16T13:26:49;29.60;99.90
16417;DHT22;8317;52.186;5.688;2022-08-16T13:29:16;29.50;99.90
16417;DHT22;8317;52.186;5.688;2022-08-16T13:31:42;29.40;99.90
16417;DHT22;8317;52.186;5.688;2022-08-16T13:34:09;29.30;99.90
16417;DHT22;8317;52.186;5.688;2022-08-16T13:36:36;29.20;99.90
16417;DHT22;8317;52.186;5.688;2022-08-16T13:39:05;29.20;99.90
16417;DHT22;8317;52.186;5.688;2022-08-16T13:41:32;29.50;99.90
16417;DHT22;8317;52.186;5.688;2022-08-16T13:43:59;29.50;99.90
16417;DHT22;8317;52.186;5.688;2022-08-16T13:46:26;29.50;99.90
16417;DHT22;8317;52.186;5.688;2022-08-16T13:48:53;29.40;99.90
16417;DHT22;8317;52.186;5.688;2022-08-16T13:51:21;29.50;99.90
16417;DHT22;8317;52.186;5.688;2022-08-16T13:53:50;29.30;99.90
16417;DHT22;8317;52.186;5.688;2022-08-16T13:56:19;29.40;99.90
16417;DHT22;8317;52.186;5.688;2022-08-16T13:58:46;29.40;99.90
16417;DHT22;8317;52.186;5.688;2022-08-16T14:01:13;29.50;99.90
16417;DHT22;8317;52.186;5.688;2022-08-16T14:03:41;29.80;99.90
16417;DHT22;8317;52.186;5.688;2022-08-16T14:06:09;29.90;99.90
16417;DHT22;8317;52.186;5.688;2022-08-16T14:08:37;30.00;99.90
16417;DHT22;8317;52.186;5.688;2022-08-16T14:11:05;30.10;99.90
16417;DHT22;8317;52.186;5.688;2022-08-16T14:13:34;30.30;99.90
16417;DHT22;8317;52.186;5.688;2022-08-16T14:16:01;30.50;99.90
16417;DHT22;8317;52.186;5.688;2022-08-16T14:18:27;30.70;99.90
16417;DHT22;8317;52.186;5.688;2022-08-16T14:20:54;30.80;99.90
16417;DHT22;8317;52.186;5.688;2022-08-16T14:23:23;30.80;99.90
16417;DHT22;8317;52.186;5.688;2022-08-16T14:25:50;30.80;99.90
16417;DHT22;8317;52.186;5.688;2022-08-16T14:28:17;30.50;99.90
16417;DHT22;8317;52.186;5.688;2022-08-16T14:30:45;30.30;99.90
16417;DHT22;8317;52.186;5.688;2022-08-16T14:33:12;30.00;99.90
16417;DHT22;8317;52.186;5.688;2022-08-16T14:35:39;30.20;99.90
16417;DHT22;8317;52.186;5.688;2022-08-16T14:38:06;30.00;99.90
16417;DHT22;8317;52.186;5.688;2022-08-16T14:40:33;30.10;99.90
16417;DHT22;8317;52.186;5.688;2022-08-16T14:43:00;30.20;99.90
16417;DHT22;8317;52.186;5.688;2022-08-16T14:45:28;30.30;99.90
16417;DHT22;8317;52.186;5.688;2022-08-16T14:47:56;30.20;99.90
16417;DHT22;8317;52.186;5.688;2022-08-16T14:50:26;30.20;99.90
16417;DHT22;8317;52.186;5.688;2022-08-16T14:52:55;30.10;99.90
16417;DHT22;8317;52.186;5.688;2022-08-16T14:55:23;30.30;99.90
16417;DHT22;8317;52.186;5.688;2022-08-16T14:57:50;30.40;99.90
16417;DHT22;8317;52.186;5.688;2022-08-16T15:00:17;30.10;99.90
16417;DHT22;8317;52.186;5.688;2022-08-16T15:02:49;30.00;99.90
16417;DHT22;8317;52.186;5.688;2022-08-16T15:05:18;29.60;99.90
16417;DHT22;8317;52.186;5.688;2022-08-16T15:07:45;29.70;99.90
16417;DHT22;8317;52.186;5.688;2022-08-16T15:10:14;29.30;99.90
16417;DHT22;8317;52.186;5.688;2022-08-16T15:12:42;29.00;99.90
16417;DHT22;8317;52.186;5.688;2022-08-16T15:15:14;28.70;99.90
16417;DHT22;8317;52.186;5.688;2022-08-16T15:17:42;28.70;99.90
16417;DHT22;8317;52.186;5.688;2022-08-16T15:20:10;28.60;99.90
16417;DHT22;8317;52.186;5.688;2022-08-16T15:22:41;28.60;99.90
16417;DHT22;8317;52.186;5.688;2022-08-16T15:25:10;28.50;99.90
16417;DHT22;8317;52.186;5.688;2022-08-16T15:27:37;28.50;99.90
16417;DHT22;8317;52.186;5.688;2022-08-16T15:30:08;28.60;99.90
16417;DHT22;8317;52.186;5.688;2022-08-16T15:32:35;28.40;99.90
16417;DHT22;8317;52.186;5.688;2022-08-16T15:35:04;28.40;99.90
16417;DHT22;8317;52.186;5.688;2022-08-16T15:37:31;28.10;99.90
16417;DHT22;8317;52.186;5.688;2022-08-16T15:39:59;28.30;99.90
16417;DHT22;8317;52.186;5.688;2022-08-16T15:42:26;28.10;99.90
16417;DHT22;8317;52.186;5.688;2022-08-16T15:44:53;28.20;99.90
16417;DHT22;8317;52.186;5.688;2022-08-16T15:47:20;28.20;99.90
16417;DHT22;8317;52.186;5.688;2022-08-16T15:49:49;28.50;99.90